LYBE/BEG METAR and TAF weather

Enter ICAO airport designator
Station Type Date Time Source
LYBE METAR 2021/05/13 07:00 UTC NOAA

LYBE 130700Z VRB02KT 9999 SCT045 15/12 Q1006 NOSIG


Station Type Date Time Source
LYBE Decoded METAR 2021/05/13 07:00 UTC NOAA

Beograd / Surcin, Serbia and Montenegro (LYBE) 44-49N 020-17E 99M
May 13, 2021 - 03:00 AM EDT / 2021.05.13 0700 UTC
Wind: Variable at 2 MPH (2 KT):0
Visibility: greater than 7 mile(s):0
Sky conditions: partly cloudy
Temperature: 59 F (15 C)
Dew Point: 53 F (12 C)
Relative Humidity: 82%
Pressure (altimeter): 29.71 in. Hg (1006 hPa)
ob: LYBE 130700Z VRB02KT 9999 SCT045 15/12 Q1006 NOSIG
cycle: 7

Station Type Date Time Source
LYBE TAF 2021/05/13 06:21 UTC NOAA

TAF LYBE 130500Z 1306/1406 21008KT 9999 SCT040 TX22/1312Z TN11/1403Z
TEMPO 1306/1308 5000 SHRA SCT027TCU BKN033
TEMPO 1310/1316 29020KT 5000 SHRA SCT030TCU BKN033

Example: see airport list